Time;durP1;ratioP1;P1;durP2;ratioP2;P2;SDS_P1;SDS_P2;PMS_P1;PMS_P2;Temp;Humidity;BMP_temperature;BMP_pressure;BME280_temperature;BME280_humidity;BME280_pressure;Samples;Min_cycle;Max_cycle;Signal;HPM_P1;HPM_P2
2023/12/02 00:00:42;;;;;;;0.15;0.15;;;;;;;;;;1729073;28;20242;-62
2023/12/02 00:01:33;;;;;;;0.20;0.20;;;;;;;;;;1725144;28;20207;-63
2023/12/02 00:02:25;;;;;;;0.10;0.10;;;;;;;;;;1731090;28;20681;-62
2023/12/02 00:03:17;;;;;;;0.20;0.20;;;;;;;;;;1727851;28;20211;-62
2023/12/02 00:04:08;;;;;;;0.28;0.28;;;;;;;;;;1729787;28;20208;-63
2023/12/02 00:04:59;;;;;;;0.10;0.10;;;;;;;;;;1731525;28;20249;-65
2023/12/02 00:05:52;;;;;;;0.10;0.10;;;;;;;;;;1729898;28;20321;-62
2023/12/02 00:06:43;;;;;;;0.15;0.15;;;;;;;;;;1731697;28;20229;-62
2023/12/02 00:07:36;;;;;;;0.05;0.05;;;;;;;;;;1732200;28;20199;-61
2023/12/02 00:08:28;;;;;;;0.20;0.20;;;;;;;;;;1730995;28;20218;-62
2023/12/02 00:09:19;;;;;;;0.20;0.20;;;;;;;;;;1731691;28;20212;-63
2023/12/02 00:10:11;;;;;;;0.10;0.10;;;;;;;;;;1731106;28;20211;-62
2023/12/02 00:11:03;;;;;;;0.30;0.30;;;;;;;;;;1730627;28;20219;-62
2023/12/02 00:11:54;;;;;;;0.17;0.17;;;;;;;;;;1731003;28;20598;-62
2023/12/02 00:12:45;;;;;;;0.05;0.05;;;;;;;;;;1731623;28;20617;-64
2023/12/02 00:13:37;;;;;;;0.10;0.10;;;;;;;;;;1731758;28;20618;-63
2023/12/02 00:14:28;;;;;;;0.10;0.10;;;;;;;;;;1731367;28;20389;-63
2023/12/02 00:15:19;;;;;;;0.20;0.20;;;;;;;;;;1730019;28;20693;-61
2023/12/02 00:16:11;;;;;;;0.10;0.10;;;;;;;;;;1727915;28;20591;-63
2023/12/02 00:17:02;;;;;;;0.10;0.10;;;;;;;;;;1727503;28;20215;-62
2023/12/02 00:17:54;;;;;;;0.30;0.30;;;;;;;;;;1729880;28;20562;-62
2023/12/02 00:18:45;;;;;;;0.13;0.13;;;;;;;;;;1727969;28;20250;-62
2023/12/02 00:19:37;;;;;;;0.30;0.30;;;;;;;;;;1727412;28;20212;-63
2023/12/02 00:20:28;;;;;;;0.20;0.20;;;;;;;;;;1729528;28;20208;-63
2023/12/02 00:21:20;;;;;;;0.20;0.20;;;;;;;;;;1727128;28;20201;-63
2023/12/02 00:22:11;;;;;;;0.10;0.10;;;;;;;;;;1729198;28;20211;-62
2023/12/02 00:23:03;;;;;;;0.10;0.10;;;;;;;;;;1731751;28;20238;-62
2023/12/02 00:23:55;;;;;;;0.20;0.20;;;;;;;;;;1731223;28;20231;-65
2023/12/02 00:24:46;;;;;;;0.20;0.20;;;;;;;;;;1731844;28;20448;-64
2023/12/02 00:25:38;;;;;;;0.10;0.10;;;;;;;;;;1730207;28;20792;-63
2023/12/02 00:26:29;;;;;;;0.20;0.20;;;;;;;;;;1725880;28;20209;-62
2023/12/02 00:27:21;;;;;;;0.20;0.20;;;;;;;;;;1730519;28;20295;-62
2023/12/02 00:28:12;;;;;;;0.30;0.30;;;;;;;;;;1728436;28;20570;-62
2023/12/02 00:29:03;;;;;;;0.10;0.10;;;;;;;;;;1730883;28;20257;-62
2023/12/02 00:29:55;;;;;;;0.20;0.20;;;;;;;;;;1732031;28;20208;-63
2023/12/02 00:30:47;;;;;;;0.20;0.20;;;;;;;;;;1730363;28;20718;-62
2023/12/02 00:31:38;;;;;;;0.20;0.20;;;;;;;;;;1729559;28;20682;-62
2023/12/02 00:32:30;;;;;;;0.10;0.10;;;;;;;;;;1731330;28;20661;-63
2023/12/02 00:33:21;;;;;;;0.30;0.30;;;;;;;;;;1730872;28;20207;-63
2023/12/02 00:34:12;;;;;;;0.10;0.10;;;;;;;;;;1727991;28;20200;-63
2023/12/02 00:35:04;;;;;;;0.20;0.20;;;;;;;;;;1729709;28;20284;-62
2023/12/02 00:35:56;;;;;;;0.13;0.13;;;;;;;;;;1730574;28;20232;-62
2023/12/02 00:36:47;;;;;;;0.17;0.17;;;;;;;;;;1731845;28;20231;-64
2023/12/02 00:37:39;;;;;;;0.10;0.10;;;;;;;;;;1732136;28;20207;-63
2023/12/02 00:38:31;;;;;;;0.10;0.10;;;;;;;;;;1731537;28;20566;-63
2023/12/02 00:39:23;;;;;;;0.20;0.20;;;;;;;;;;1731659;28;20215;-64
2023/12/02 00:40:14;;;;;;;0.28;0.28;;;;;;;;;;1731440;28;20964;-62
2023/12/02 00:41:09;;;;;;;0.20;0.20;;;;;;;;;;1730440;28;20318;-63
2023/12/02 00:42:01;;;;;;;0.32;0.32;;;;;;;;;;1731318;28;20609;-63
2023/12/02 00:42:52;;;;;;;0.20;0.20;;;;;;;;;;1730597;28;20204;-63
2023/12/02 00:43:43;;;;;;;0.30;0.30;;;;;;;;;;1728413;28;20204;-63
2023/12/02 00:44:34;;;;;;;0.10;0.10;;;;;;;;;;1732296;28;20239;-63
2023/12/02 00:45:26;;;;;;;0.20;0.20;;;;;;;;;;1729800;28;20262;-63
2023/12/02 00:46:17;;;;;;;0.10;0.10;;;;;;;;;;1731801;28;20693;-63
2023/12/02 00:47:09;;;;;;;0.22;0.22;;;;;;;;;;1731426;28;20290;-63
2023/12/02 00:48:00;;;;;;;0.22;0.22;;;;;;;;;;1732735;28;20207;-64
2023/12/02 00:48:51;;;;;;;0.20;0.20;;;;;;;;;;1732569;28;20211;-64
2023/12/02 00:49:43;;;;;;;0.05;0.05;;;;;;;;;;1733629;28;20294;-63
2023/12/02 00:50:34;;;;;;;0.20;0.20;;;;;;;;;;1731844;28;20243;-63
2023/12/02 00:51:26;;;;;;;0.20;0.20;;;;;;;;;;1726796;28;20208;-63
2023/12/02 00:52:17;;;;;;;0.20;0.20;;;;;;;;;;1731186;28;20256;-62
2023/12/02 00:53:09;;;;;;;0.20;0.20;;;;;;;;;;1726621;28;20598;-63
2023/12/02 00:54:01;;;;;;;0.00;0.00;;;;;;;;;;1730181;28;20599;-63
2023/12/02 00:54:53;;;;;;;0.30;0.30;;;;;;;;;;1732198;28;20208;-63
2023/12/02 00:55:44;;;;;;;0.15;0.15;;;;;;;;;;1729908;28;20393;-63
2023/12/02 00:56:35;;;;;;;0.30;0.30;;;;;;;;;;1732712;28;20316;-63
2023/12/02 00:57:27;;;;;;;0.10;0.10;;;;;;;;;;1734687;28;20211;-63
2023/12/02 00:58:18;;;;;;;0.20;0.20;;;;;;;;;;1726285;28;20265;-63
2023/12/02 00:59:09;;;;;;;0.10;0.10;;;;;;;;;;1730948;28;20560;-64
2023/12/02 01:00:03;;;;;;;0.32;0.32;;;;;;;;;;1731159;28;20575;-63
2023/12/02 01:00:54;;;;;;;0.10;0.10;;;;;;;;;;1728253;28;20235;-63
2023/12/02 01:01:47;;;;;;;0.35;0.35;;;;;;;;;;1727023;28;20690;-61
2023/12/02 01:02:38;;;;;;;0.20;0.20;;;;;;;;;;1732796;28;20870;-63
2023/12/02 01:03:29;;;;;;;0.20;0.20;;;;;;;;;;1727686;28;20619;-63
2023/12/02 01:04:20;;;;;;;0.15;0.15;;;;;;;;;;1727959;28;20793;-63
2023/12/02 01:05:11;;;;;;;0.20;0.20;;;;;;;;;;1728738;28;20261;-63
2023/12/02 01:06:04;;;;;;;0.43;0.43;;;;;;;;;;1731606;28;20238;-63
2023/12/02 01:06:55;;;;;;;0.10;0.10;;;;;;;;;;1731986;28;20215;-63
2023/12/02 01:07:46;;;;;;;0.10;0.10;;;;;;;;;;1733236;28;20230;-63
2023/12/02 01:08:38;;;;;;;0.10;0.10;;;;;;;;;;1732450;28;20219;-63
2023/12/02 01:09:30;;;;;;;0.30;0.30;;;;;;;;;;1732750;28;20299;-63
2023/12/02 01:10:22;;;;;;;0.17;0.17;;;;;;;;;;1730907;28;20226;-64
2023/12/02 01:11:13;;;;;;;0.10;0.10;;;;;;;;;;1733166;28;20219;-65
2023/12/02 01:12:06;;;;;;;0.10;0.10;;;;;;;;;;1732430;28;20290;-64
2023/12/02 01:12:57;;;;;;;0.10;0.10;;;;;;;;;;1732621;28;20560;-62
2023/12/02 01:13:48;;;;;;;0.00;0.00;;;;;;;;;;1732476;28;20330;-63
2023/12/02 01:14:40;;;;;;;0.20;0.20;;;;;;;;;;1733045;28;20351;-62
2023/12/02 01:15:31;;;;;;;0.20;0.20;;;;;;;;;;1733180;28;20211;-62
2023/12/02 01:16:22;;;;;;;0.10;0.10;;;;;;;;;;1739701;28;20222;-63
2023/12/02 01:17:14;;;;;;;0.30;0.30;;;;;;;;;;1738696;28;20202;-63
2023/12/02 01:18:05;;;;;;;0.00;0.00;;;;;;;;;;1739517;28;20272;-62
2023/12/02 01:18:56;;;;;;;0.10;0.10;;;;;;;;;;1738684;28;20230;-63
2023/12/02 01:19:48;;;;;;;0.17;0.17;;;;;;;;;;1739599;28;20336;-62
2023/12/02 01:20:39;;;;;;;0.10;0.10;;;;;;;;;;1737209;28;20263;-65
2023/12/02 01:21:31;;;;;;;0.17;0.17;;;;;;;;;;1739644;28;20202;-63
2023/12/02 01:22:22;;;;;;;0.30;0.30;;;;;;;;;;1738908;28;20207;-64
2023/12/02 01:23:14;;;;;;;0.10;0.10;;;;;;;;;;1739296;28;20257;-65
2023/12/02 01:24:05;;;;;;;0.20;0.20;;;;;;;;;;1739136;28;20210;-65
2023/12/02 01:24:58;;;;;;;0.13;0.13;;;;;;;;;;1739227;28;20222;-63
2023/12/02 01:25:49;;;;;;;0.15;0.15;;;;;;;;;;1737603;28;20791;-63
2023/12/02 01:26:40;;;;;;;0.10;0.10;;;;;;;;;;1739553;28;20211;-63
2023/12/02 01:27:32;;;;;;;0.08;0.08;;;;;;;;;;1738841;28;20257;-64
2023/12/02 01:28:24;;;;;;;0.20;0.20;;;;;;;;;;1738988;28;20215;-64
2023/12/02 01:29:15;;;;;;;0.08;0.08;;;;;;;;;;1739244;28;20210;-65
2023/12/02 01:30:07;;;;;;;0.20;0.20;;;;;;;;;;1738753;28;20213;-63
2023/12/02 01:30:58;;;;;;;0.20;0.20;;;;;;;;;;1738020;28;20242;-63
2023/12/02 01:31:50;;;;;;;0.20;0.20;;;;;;;;;;1738924;28;20636;-63
2023/12/02 01:32:41;;;;;;;0.10;0.10;;;;;;;;;;1737272;28;20317;-63
2023/12/02 01:33:33;;;;;;;0.20;0.20;;;;;;;;;;1738628;28;20214;-63
2023/12/02 01:34:25;;;;;;;0.30;0.30;;;;;;;;;;1739320;28;20729;-63
2023/12/02 01:35:16;;;;;;;0.20;0.20;;;;;;;;;;1737583;28;20211;-63
2023/12/02 01:36:10;;;;;;;0.10;0.10;;;;;;;;;;1739274;28;20642;-63
2023/12/02 01:37:02;;;;;;;0.10;0.10;;;;;;;;;;1738855;28;20203;-65
2023/12/02 01:37:53;;;;;;;0.40;0.40;;;;;;;;;;1739210;28;20219;-68
2023/12/02 01:38:44;;;;;;;0.30;0.30;;;;;;;;;;1739711;28;20257;-63
2023/12/02 01:39:36;;;;;;;0.10;0.10;;;;;;;;;;1744237;28;20214;-64
2023/12/02 01:40:29;;;;;;;0.32;0.32;;;;;;;;;;1741729;28;20348;-66
2023/12/02 01:41:21;;;;;;;0.10;0.10;;;;;;;;;;1737901;28;20204;-66
2023/12/02 01:42:12;;;;;;;0.20;0.20;;;;;;;;;;1738218;28;20310;-66
2023/12/02 01:43:03;;;;;;;0.00;0.00;;;;;;;;;;1738283;28;20404;-64
2023/12/02 01:43:55;;;;;;;0.20;0.20;;;;;;;;;;1737264;28;20203;-63
2023/12/02 01:44:46;;;;;;;0.50;0.50;;;;;;;;;;1739102;28;20726;-66
2023/12/02 01:45:37;;;;;;;0.20;0.20;;;;;;;;;;1740327;28;20649;-67
2023/12/02 01:46:29;;;;;;;0.03;0.03;;;;;;;;;;1744910;28;20203;-65
2023/12/02 01:47:20;;;;;;;0.10;0.10;;;;;;;;;;1743926;28;20214;-66
2023/12/02 01:48:11;;;;;;;0.20;0.20;;;;;;;;;;1745206;28;20195;-65
2023/12/02 01:49:04;;;;;;;0.10;0.10;;;;;;;;;;1744277;28;20224;-67
2023/12/02 01:49:55;;;;;;;0.15;0.15;;;;;;;;;;1744819;28;20223;-65
2023/12/02 01:50:47;;;;;;;0.28;0.28;;;;;;;;;;1744235;28;20234;-65
2023/12/02 01:51:39;;;;;;;0.28;0.28;;;;;;;;;;1745460;28;20250;-66
2023/12/02 01:52:30;;;;;;;0.20;0.20;;;;;;;;;;1745357;28;20234;-64
2023/12/02 01:53:22;;;;;;;0.20;0.20;;;;;;;;;;1745687;28;20314;-64
2023/12/02 01:54:13;;;;;;;0.10;0.10;;;;;;;;;;1746317;28;20686;-65
2023/12/02 01:55:04;;;;;;;0.10;0.10;;;;;;;;;;1746269;28;20541;-63
2023/12/02 01:55:57;;;;;;;0.20;0.20;;;;;;;;;;1744391;28;20246;-67
2023/12/02 01:56:49;;;;;;;0.13;0.13;;;;;;;;;;1745519;28;20298;-68
2023/12/02 01:57:40;;;;;;;0.30;0.30;;;;;;;;;;1747314;28;20209;-68
2023/12/02 01:58:32;;;;;;;0.40;0.40;;;;;;;;;;1746478;28;20205;-65
2023/12/02 01:59:23;;;;;;;0.50;0.50;;;;;;;;;;1747063;28;20219;-66
2023/12/02 02:00:14;;;;;;;0.22;0.22;;;;;;;;;;1746048;28;20209;-63
2023/12/02 02:01:07;;;;;;;0.10;0.10;;;;;;;;;;1747568;28;20198;-67
2023/12/02 02:01:58;;;;;;;0.15;0.15;;;;;;;;;;1746971;28;20211;-66
2023/12/02 02:02:49;;;;;;;0.10;0.10;;;;;;;;;;1747227;28;20183;-66
2023/12/02 02:03:41;;;;;;;0.20;0.20;;;;;;;;;;1747240;28;20349;-65
2023/12/02 02:04:32;;;;;;;0.20;0.20;;;;;;;;;;1742907;28;20707;-63
2023/12/02 02:05:23;;;;;;;0.20;0.20;;;;;;;;;;1738330;28;20276;-64
2023/12/02 02:06:15;;;;;;;0.20;0.20;;;;;;;;;;1739762;28;20760;-64
2023/12/02 02:07:06;;;;;;;0.25;0.25;;;;;;;;;;1739241;28;20264;-63
2023/12/02 02:07:57;;;;;;;0.20;0.20;;;;;;;;;;1739883;28;20221;-64
2023/12/02 02:08:49;;;;;;;0.30;0.30;;;;;;;;;;1739131;28;20207;-64
2023/12/02 02:09:45;;;;;;;0.28;0.28;;;;;;;;;;1739519;28;20222;-63
2023/12/02 02:10:36;;;;;;;0.15;0.15;;;;;;;;;;1737466;28;20211;-66
2023/12/02 02:11:30;;;;;;;0.10;0.10;;;;;;;;;;1739476;28;20602;-63
2023/12/02 02:12:21;;;;;;;0.10;0.10;;;;;;;;;;1738880;28;20260;-64
2023/12/02 02:13:12;;;;;;;0.20;0.20;;;;;;;;;;1739314;28;20222;-63
2023/12/02 02:14:04;;;;;;;0.22;0.22;;;;;;;;;;1738876;28;20203;-63
2023/12/02 02:14:55;;;;;;;0.20;0.20;;;;;;;;;;1739383;28;20581;-63
2023/12/02 02:15:47;;;;;;;0.10;0.10;;;;;;;;;;1738126;28;20254;-63
2023/12/02 02:16:38;;;;;;;0.15;0.15;;;;;;;;;;1739657;28;20269;-64
2023/12/02 02:17:30;;;;;;;0.20;0.20;;;;;;;;;;1739028;28;20261;-64
2023/12/02 02:18:21;;;;;;;0.10;0.10;;;;;;;;;;1739666;28;20620;-64
2023/12/02 02:19:14;;;;;;;0.20;0.20;;;;;;;;;;1739804;28;20990;-62
2023/12/02 02:20:05;;;;;;;0.20;0.20;;;;;;;;;;1744734;28;20211;-65
2023/12/02 02:20:57;;;;;;;0.40;0.40;;;;;;;;;;1745528;28;20234;-66
2023/12/02 02:21:53;;;;;;;0.10;0.10;;;;;;;;;;1747264;28;20271;-66
2023/12/02 02:22:45;;;;;;;0.13;0.13;;;;;;;;;;1744691;28;20215;-66
2023/12/02 02:23:36;;;;;;;0.08;0.08;;;;;;;;;;1742347;28;20273;-64
2023/12/02 02:24:27;;;;;;;0.25;0.25;;;;;;;;;;1739064;28;20629;-63
2023/12/02 02:25:19;;;;;;;0.10;0.10;;;;;;;;;;1737441;28;20203;-65
2023/12/02 02:26:10;;;;;;;0.10;0.10;;;;;;;;;;1739022;28;20234;-65
2023/12/02 02:27:01;;;;;;;0.30;0.30;;;;;;;;;;1738547;28;20200;-63
2023/12/02 02:27:53;;;;;;;0.30;0.30;;;;;;;;;;1739146;28;20207;-63
2023/12/02 02:28:44;;;;;;;0.10;0.10;;;;;;;;;;1735836;28;20252;-62
2023/12/02 02:29:35;;;;;;;0.20;0.20;;;;;;;;;;1737990;28;20576;-62
2023/12/02 02:30:27;;;;;;;0.10;0.10;;;;;;;;;;1737698;28;20290;-64
2023/12/02 02:31:18;;;;;;;0.22;0.22;;;;;;;;;;1739464;28;20268;-64
2023/12/02 02:32:10;;;;;;;0.30;0.30;;;;;;;;;;1738446;28;20666;-63
2023/12/02 02:33:01;;;;;;;0.20;0.20;;;;;;;;;;1739053;28;20207;-62
2023/12/02 02:33:53;;;;;;;0.10;0.10;;;;;;;;;;1738138;28;20233;-65
2023/12/02 02:34:44;;;;;;;0.10;0.10;;;;;;;;;;1739084;28;20263;-64
2023/12/02 02:35:35;;;;;;;0.10;0.10;;;;;;;;;;1737489;28;20227;-63
2023/12/02 02:36:27;;;;;;;0.10;0.10;;;;;;;;;;1738962;28;20210;-64
2023/12/02 02:37:20;;;;;;;0.20;0.20;;;;;;;;;;1738481;28;20210;-64
2023/12/02 02:38:12;;;;;;;0.00;0.00;;;;;;;;;;1738750;28;20207;-63
2023/12/02 02:39:04;;;;;;;0.10;0.10;;;;;;;;;;1738700;28;20206;-63
2023/12/02 02:39:55;;;;;;;0.15;0.15;;;;;;;;;;1738948;28;20202;-65
2023/12/02 02:40:46;;;;;;;0.00;0.00;;;;;;;;;;1737746;28;20246;-63
2023/12/02 02:41:37;;;;;;;0.10;0.10;;;;;;;;;;1739133;28;20199;-64
2023/12/02 02:42:30;;;;;;;0.10;0.10;;;;;;;;;;1738544;28;20329;-64
2023/12/02 02:43:21;;;;;;;0.38;0.38;;;;;;;;;;1739051;28;20207;-64
2023/12/02 02:44:13;;;;;;;0.00;0.00;;;;;;;;;;1738780;28;20333;-63
2023/12/02 02:45:04;;;;;;;0.20;0.20;;;;;;;;;;1738694;28;20226;-62
2023/12/02 02:45:55;;;;;;;0.20;0.20;;;;;;;;;;1728226;28;20975;-63
2023/12/02 02:46:47;;;;;;;0.10;0.10;;;;;;;;;;1731945;28;21044;-63
2023/12/02 02:47:38;;;;;;;0.10;0.10;;;;;;;;;;1731748;28;20207;-62
2023/12/02 02:48:29;;;;;;;0.20;0.20;;;;;;;;;;1729935;28;20200;-62
2023/12/02 02:49:21;;;;;;;0.10;0.10;;;;;;;;;;1731581;28;20302;-63
2023/12/02 02:50:12;;;;;;;0.10;0.10;;;;;;;;;;1730097;28;20719;-62
2023/12/02 02:51:03;;;;;;;0.28;0.28;;;;;;;;;;1738597;28;20642;-62
2023/12/02 02:51:55;;;;;;;0.20;0.20;;;;;;;;;;1738458;28;20203;-61
2023/12/02 02:52:48;;;;;;;0.10;0.10;;;;;;;;;;1739142;28;20207;-63
2023/12/02 02:53:39;;;;;;;0.10;0.10;;;;;;;;;;1738520;28;20207;-62
2023/12/02 02:54:31;;;;;;;0.10;0.10;;;;;;;;;;1738556;28;20230;-64
2023/12/02 02:55:22;;;;;;;0.00;0.00;;;;;;;;;;1735753;28;20299;-63
2023/12/02 02:56:13;;;;;;;0.10;0.10;;;;;;;;;;1731318;28;20231;-63
2023/12/02 02:57:06;;;;;;;0.15;0.15;;;;;;;;;;1731333;28;20203;-62
2023/12/02 02:57:57;;;;;;;0.20;0.20;;;;;;;;;;1730898;28;20265;-63
2023/12/02 02:58:48;;;;;;;0.20;0.20;;;;;;;;;;1731815;28;20257;-63
2023/12/02 02:59:40;;;;;;;0.45;0.45;;;;;;;;;;1732132;28;20204;-62
2023/12/02 03:00:31;;;;;;;0.10;0.10;;;;;;;;;;1731775;28;20618;-62
2023/12/02 03:01:23;;;;;;;0.00;0.00;;;;;;;;;;1738004;28;20311;-62
2023/12/02 03:02:14;;;;;;;0.10;0.10;;;;;;;;;;1738454;28;20658;-62
2023/12/02 03:03:06;;;;;;;0.20;0.20;;;;;;;;;;1737484;28;20586;-62
2023/12/02 03:03:57;;;;;;;0.20;0.20;;;;;;;;;;1738503;28;20203;-63
2023/12/02 03:04:48;;;;;;;0.10;0.10;;;;;;;;;;1739214;28;20769;-63
2023/12/02 03:05:40;;;;;;;0.00;0.00;;;;;;;;;;1737006;28;20687;-63
2023/12/02 03:06:31;;;;;;;0.20;0.20;;;;;;;;;;1739078;28;20277;-63
2023/12/02 03:07:22;;;;;;;0.20;0.20;;;;;;;;;;1738312;28;20199;-64
2023/12/02 03:08:16;;;;;;;0.00;0.00;;;;;;;;;;1739066;28;20512;-62
2023/12/02 03:09:07;;;;;;;0.30;0.30;;;;;;;;;;1738373;28;20258;-63
2023/12/02 03:09:58;;;;;;;0.10;0.10;;;;;;;;;;1738716;28;20265;-62
2023/12/02 03:10:50;;;;;;;0.15;0.15;;;;;;;;;;1737296;28;20605;-63
2023/12/02 03:11:41;;;;;;;0.43;0.43;;;;;;;;;;1738506;28;20215;-61
2023/12/02 03:12:32;;;;;;;0.10;0.10;;;;;;;;;;1738893;28;20696;-63
2023/12/02 03:13:24;;;;;;;0.35;0.35;;;;;;;;;;1738499;28;20689;-62
2023/12/02 03:14:15;;;;;;;0.10;0.10;;;;;;;;;;1738689;28;20341;-62
2023/12/02 03:15:07;;;;;;;0.20;0.20;;;;;;;;;;1738325;28;20310;-63
2023/12/02 03:15:59;;;;;;;0.10;0.10;;;;;;;;;;1737403;28;20290;-63
2023/12/02 03:16:50;;;;;;;0.10;0.10;;;;;;;;;;1738796;28;20248;-62
2023/12/02 03:17:42;;;;;;;0.10;0.10;;;;;;;;;;1737635;28;20211;-62
2023/12/02 03:18:33;;;;;;;0.20;0.20;;;;;;;;;;1738398;28;20218;-62
2023/12/02 03:19:24;;;;;;;0.10;0.10;;;;;;;;;;1738649;28;20681;-62
2023/12/02 03:20:17;;;;;;;0.25;0.25;;;;;;;;;;1738240;28;20203;-62
2023/12/02 03:21:08;;;;;;;0.10;0.10;;;;;;;;;;1731313;28;20268;-62
2023/12/02 03:21:59;;;;;;;0.20;0.20;;;;;;;;;;1731232;28;20322;-63
2023/12/02 03:22:51;;;;;;;0.10;0.10;;;;;;;;;;1731622;28;20670;-62
2023/12/02 03:23:44;;;;;;;0.20;0.20;;;;;;;;;;1730995;28;20223;-62
2023/12/02 03:24:35;;;;;;;0.30;0.30;;;;;;;;;;1730772;28;20219;-62
2023/12/02 03:25:27;;;;;;;0.20;0.20;;;;;;;;;;1728822;28;20203;-62
2023/12/02 03:26:18;;;;;;;0.10;0.10;;;;;;;;;;1731891;28;20227;-63
2023/12/02 03:27:11;;;;;;;0.10;0.10;;;;;;;;;;1731507;28;20530;-63
2023/12/02 03:28:02;;;;;;;0.10;0.10;;;;;;;;;;1731981;28;20606;-63
2023/12/02 03:28:53;;;;;;;0.10;0.10;;;;;;;;;;1730335;28;20204;-63
2023/12/02 03:29:45;;;;;;;0.13;0.13;;;;;;;;;;1732089;28;20217;-64
2023/12/02 03:30:36;;;;;;;0.20;0.20;;;;;;;;;;1728917;28;20208;-63
2023/12/02 03:31:27;;;;;;;0.13;0.13;;;;;;;;;;1732072;28;20207;-63
2023/12/02 03:32:19;;;;;;;0.10;0.10;;;;;;;;;;1731210;28;20219;-64
2023/12/02 03:33:10;;;;;;;0.00;0.00;;;;;;;;;;1730163;28;20212;-63
2023/12/02 03:34:01;;;;;;;0.13;0.13;;;;;;;;;;1729463;28;20231;-63
2023/12/02 03:34:53;;;;;;;0.05;0.05;;;;;;;;;;1728145;28;20211;-63
2023/12/02 03:35:44;;;;;;;0.10;0.10;;;;;;;;;;1730038;28;20274;-63
2023/12/02 03:36:35;;;;;;;0.28;0.28;;;;;;;;;;1730437;28;20286;-66
2023/12/02 03:37:27;;;;;;;0.13;0.13;;;;;;;;;;1731748;28;20207;-63
2023/12/02 03:38:18;;;;;;;0.10;0.10;;;;;;;;;;1732044;28;20261;-63
2023/12/02 03:39:12;;;;;;;0.20;0.20;;;;;;;;;;1731687;28;20654;-64
2023/12/02 03:40:04;;;;;;;0.10;0.10;;;;;;;;;;1731633;28;20207;-63
2023/12/02 03:40:55;;;;;;;0.20;0.20;;;;;;;;;;1729500;28;20251;-65
2023/12/02 03:41:47;;;;;;;0.20;0.20;;;;;;;;;;1731512;28;20670;-62
2023/12/02 03:42:38;;;;;;;0.20;0.20;;;;;;;;;;1731939;28;20203;-62
2023/12/02 03:43:29;;;;;;;0.20;0.20;;;;;;;;;;1731896;28;20203;-64
2023/12/02 03:44:22;;;;;;;0.10;0.10;;;;;;;;;;1732282;28;20208;-65
2023/12/02 03:45:13;;;;;;;0.30;0.30;;;;;;;;;;1729086;28;20719;-60
2023/12/02 03:46:04;;;;;;;0.15;0.15;;;;;;;;;;1732317;28;20325;-63
2023/12/02 03:46:56;;;;;;;0.10;0.10;;;;;;;;;;1731895;28;20210;-63
2023/12/02 03:47:47;;;;;;;0.13;0.13;;;;;;;;;;1731873;28;20212;-62
2023/12/02 03:48:38;;;;;;;0.10;0.10;;;;;;;;;;1731856;28;20625;-63
2023/12/02 03:49:30;;;;;;;0.00;0.00;;;;;;;;;;1732197;28;20231;-63
2023/12/02 03:50:21;;;;;;;0.20;0.20;;;;;;;;;;1730484;28;20219;-62
2023/12/02 03:51:13;;;;;;;0.10;0.10;;;;;;;;;;1739134;28;20203;-65
2023/12/02 03:52:04;;;;;;;0.10;0.10;;;;;;;;;;1738629;28;20238;-63
2023/12/02 03:52:55;;;;;;;0.10;0.10;;;;;;;;;;1739228;28;20206;-62
2023/12/02 03:53:47;;;;;;;0.20;0.20;;;;;;;;;;1738581;28;20302;-63
2023/12/02 03:54:40;;;;;;;0.00;0.00;;;;;;;;;;1739079;28;20264;-62
2023/12/02 03:55:32;;;;;;;0.28;0.28;;;;;;;;;;1736989;28;20240;-62
2023/12/02 03:56:23;;;;;;;0.10;0.10;;;;;;;;;;1737649;28;20231;-63
2023/12/02 03:57:15;;;;;;;0.10;0.10;;;;;;;;;;1738607;28;20203;-64
2023/12/02 03:58:06;;;;;;;0.10;0.10;;;;;;;;;;1739102;28;20958;-63
2023/12/02 03:58:57;;;;;;;0.10;0.10;;;;;;;;;;1738738;28;20284;-65
2023/12/02 03:59:49;;;;;;;0.00;0.00;;;;;;;;;;1738967;28;20480;-63
2023/12/02 04:00:41;;;;;;;0.08;0.08;;;;;;;;;;1736430;28;20247;-63
2023/12/02 04:01:33;;;;;;;0.20;0.20;;;;;;;;;;1738962;28;20606;-63
2023/12/02 04:02:24;;;;;;;0.20;0.20;;;;;;;;;;1738301;28;20203;-62
2023/12/02 04:03:15;;;;;;;0.20;0.20;;;;;;;;;;1738440;28;20248;-63
2023/12/02 04:04:07;;;;;;;0.10;0.10;;;;;;;;;;1738205;28;20254;-62
2023/12/02 04:04:58;;;;;;;0.20;0.20;;;;;;;;;;1734870;28;20207;-62
2023/12/02 04:05:49;;;;;;;0.20;0.20;;;;;;;;;;1736842;28;20273;-64
2023/12/02 04:06:41;;;;;;;0.20;0.20;;;;;;;;;;1739084;28;20218;-63
2023/12/02 04:07:32;;;;;;;0.20;0.20;;;;;;;;;;1738354;28;20555;-64
2023/12/02 04:08:23;;;;;;;0.10;0.10;;;;;;;;;;1738375;28;20268;-63
2023/12/02 04:09:16;;;;;;;0.10;0.10;;;;;;;;;;1738553;28;20203;-63
2023/12/02 04:10:09;;;;;;;0.10;0.10;;;;;;;;;;1735939;28;20219;-63
2023/12/02 04:11:00;;;;;;;0.10;0.10;;;;;;;;;;1733691;28;20621;-60
2023/12/02 04:11:52;;;;;;;0.10;0.10;;;;;;;;;;1738626;28;20620;-62
2023/12/02 04:12:43;;;;;;;0.17;0.17;;;;;;;;;;1738568;28;20260;-63
2023/12/02 04:13:34;;;;;;;0.10;0.10;;;;;;;;;;1736089;28;20203;-62
2023/12/02 04:14:26;;;;;;;0.20;0.20;;;;;;;;;;1738750;28;20210;-62
2023/12/02 04:15:17;;;;;;;0.00;0.00;;;;;;;;;;1736923;28;20625;-63
2023/12/02 04:16:10;;;;;;;0.05;0.05;;;;;;;;;;1738512;28;20227;-66
2023/12/02 04:17:01;;;;;;;0.20;0.20;;;;;;;;;;1737990;28;20240;-61
2023/12/02 04:17:52;;;;;;;0.20;0.20;;;;;;;;;;1738518;28;20340;-63
2023/12/02 04:18:44;;;;;;;0.25;0.25;;;;;;;;;;1738488;28;20258;-63
2023/12/02 04:19:35;;;;;;;0.13;0.13;;;;;;;;;;1738596;28;20211;-62
2023/12/02 04:20:26;;;;;;;0.40;0.40;;;;;;;;;;1736866;28;20207;-62
2023/12/02 04:21:18;;;;;;;0.20;0.20;;;;;;;;;;1738749;28;20230;-62
2023/12/02 04:22:09;;;;;;;0.13;0.13;;;;;;;;;;1737946;28;20215;-62
2023/12/02 04:23:00;;;;;;;0.10;0.10;;;;;;;;;;1738626;28;20297;-63
2023/12/02 04:23:52;;;;;;;0.20;0.20;;;;;;;;;;1738215;28;20217;-63
2023/12/02 04:24:43;;;;;;;0.22;0.22;;;;;;;;;;1738521;28;20215;-62
2023/12/02 04:25:38;;;;;;;0.10;0.10;;;;;;;;;;1737044;28;20790;-61
2023/12/02 04:26:29;;;;;;;0.20;0.20;;;;;;;;;;1739068;28;20218;-62
2023/12/02 04:27:20;;;;;;;0.22;0.22;;;;;;;;;;1738422;28;20741;-63
2023/12/02 04:28:12;;;;;;;0.20;0.20;;;;;;;;;;1738721;28;20199;-64
2023/12/02 04:29:03;;;;;;;0.10;0.10;;;;;;;;;;1738657;28;20211;-62
2023/12/02 04:29:54;;;;;;;0.30;0.30;;;;;;;;;;1739610;28;20203;-62
2023/12/02 04:30:46;;;;;;;0.10;0.10;;;;;;;;;;1737879;28;20313;-63
2023/12/02 04:31:37;;;;;;;0.10;0.10;;;;;;;;;;1740634;28;20264;-63
2023/12/02 04:32:29;;;;;;;0.05;0.05;;;;;;;;;;1739463;28;20206;-63
2023/12/02 04:33:20;;;;;;;0.20;0.20;;;;;;;;;;1739750;28;20264;-62
2023/12/02 04:34:12;;;;;;;0.22;0.22;;;;;;;;;;1739327;28;20210;-62
2023/12/02 04:35:05;;;;;;;0.22;0.22;;;;;;;;;;1737913;28;20207;-62
2023/12/02 04:35:56;;;;;;;0.43;0.43;;;;;;;;;;1737268;28;20304;-63
2023/12/02 04:36:48;;;;;;;0.10;0.10;;;;;;;;;;1738147;28;20260;-63
2023/12/02 04:37:41;;;;;;;0.28;0.28;;;;;;;;;;1738644;28;20211;-63
2023/12/02 04:38:32;;;;;;;0.15;0.15;;;;;;;;;;1737848;28;20358;-63
2023/12/02 04:39:25;;;;;;;0.00;0.00;;;;;;;;;;1738309;28;20207;-62
2023/12/02 04:40:17;;;;;;;0.15;0.15;;;;;;;;;;1738224;28;20214;-61
2023/12/02 04:41:09;;;;;;;0.15;0.15;;;;;;;;;;1737301;28;20284;-62
2023/12/02 04:42:00;;;;;;;0.13;0.13;;;;;;;;;;1738483;28;20653;-63
2023/12/02 04:42:52;;;;;;;0.10;0.10;;;;;;;;;;1738128;28;20268;-63
2023/12/02 04:43:43;;;;;;;0.30;0.30;;;;;;;;;;1738251;28;20491;-63
2023/12/02 04:44:34;;;;;;;0.10;0.10;;;;;;;;;;1737167;28;21032;-62
2023/12/02 04:45:26;;;;;;;0.40;0.40;;;;;;;;;;1736706;28;21073;-63
2023/12/02 04:46:17;;;;;;;0.10;0.10;;;;;;;;;;1738915;28;20226;-62
2023/12/02 04:47:08;;;;;;;0.20;0.20;;;;;;;;;;1738073;28;20207;-63
2023/12/02 04:48:00;;;;;;;0.00;0.00;;;;;;;;;;1739019;28;20230;-63
2023/12/02 04:48:51;;;;;;;0.10;0.10;;;;;;;;;;1738097;28;20267;-64
2023/12/02 04:49:42;;;;;;;0.10;0.10;;;;;;;;;;1738797;28;20264;-63
2023/12/02 04:50:34;;;;;;;0.20;0.20;;;;;;;;;;1737552;28;20239;-63
2023/12/02 04:51:25;;;;;;;0.10;0.10;;;;;;;;;;1736768;28;20246;-62
2023/12/02 04:52:17;;;;;;;0.10;0.10;;;;;;;;;;1738528;28;20202;-63
2023/12/02 04:53:09;;;;;;;0.10;0.10;;;;;;;;;;1734904;28;20581;-63
2023/12/02 04:54:00;;;;;;;0.30;0.30;;;;;;;;;;1738296;28;20203;-64
2023/12/02 04:54:51;;;;;;;0.10;0.10;;;;;;;;;;1738638;28;20214;-63
2023/12/02 04:55:43;;;;;;;0.38;0.38;;;;;;;;;;1736595;28;20825;-63
2023/12/02 04:56:36;;;;;;;0.38;0.38;;;;;;;;;;1735159;28;20615;-63
2023/12/02 04:57:27;;;;;;;0.10;0.10;;;;;;;;;;1737698;28;20207;-63
2023/12/02 04:58:19;;;;;;;0.15;0.15;;;;;;;;;;1738238;28;20210;-64
2023/12/02 04:59:10;;;;;;;0.10;0.10;;;;;;;;;;1738224;28;20313;-63
2023/12/02 05:00:03;;;;;;;0.20;0.20;;;;;;;;;;1738357;28;20681;-65
2023/12/02 05:00:54;;;;;;;0.30;0.30;;;;;;;;;;1736920;28;20240;-64
2023/12/02 05:01:46;;;;;;;0.20;0.20;;;;;;;;;;1738313;28;20213;-63
2023/12/02 05:02:37;;;;;;;0.10;0.10;;;;;;;;;;1739169;28;20215;-62
2023/12/02 05:03:28;;;;;;;0.10;0.10;;;;;;;;;;1739024;28;20268;-63
2023/12/02 05:04:20;;;;;;;0.10;0.10;;;;;;;;;;1738994;28;20231;-63
2023/12/02 05:05:12;;;;;;;0.20;0.20;;;;;;;;;;1740000;28;20203;-64
2023/12/02 05:06:04;;;;;;;0.10;0.10;;;;;;;;;;1745315;28;20238;-65
2023/12/02 05:06:55;;;;;;;0.10;0.10;;;;;;;;;;1742105;28;20290;-66
2023/12/02 05:07:46;;;;;;;0.20;0.20;;;;;;;;;;1746298;28;20268;-66
2023/12/02 05:08:38;;;;;;;0.20;0.20;;;;;;;;;;1744524;28;20241;-63
2023/12/02 05:09:29;;;;;;;0.22;0.22;;;;;;;;;;1738610;28;20251;-63